MMOX/OAX METAR and TAF weather

Enter ICAO airport designator
Station Type Date Time Source
MMOX METAR 2021/04/14 19:50 UTC NOAA

MMOX 141950Z 17011KT 10SM SCT035 TCU BKN200 31/00 A3011 RMK 8/201 HZY


Station Type Date Time Source
MMOX Decoded METAR 2021/04/14 19:50 UTC NOAA

Oaxaca / Xoxocotlan, Mexico (MMOX) 16-58N 096-44W
Apr 14, 2021 - 03:50 PM EDT / 2021.04.14 1950 UTC
Wind: from the S (170 degrees) at 13 MPH (11 KT):0
Visibility: 10 mile(s):0
Sky conditions: mostly cloudy
Weather: Towering cumulus clouds observed
Temperature: 87 F (31 C)
Dew Point: 32 F (0 C)
Relative Humidity: 13%
Pressure (altimeter): 30.11 in. Hg (1019 hPa)
ob: MMOX 141950Z 17011KT 10SM SCT035 TCU BKN200 31/00 A3011 RMK 8/201 HZY
cycle: 20

Station Type Date Time Source
MMOX TAF 2021/04/14 18:31 UTC NOAA

TAF MMOX 141627Z 1418/1518 00000KT P6SM SCT030
FM142100 16015KT P6SM BKN030
TEMPO 1422/1502 5SM TSRA BKN025CB
FM150300 06005KT P6SM SCT100 BKN200

Example: see airport list